KEEN/EEN METAR and TAF weather

Enter ICAO airport designator
Station Type Date Time Source
KEEN METAR 2018/01/19 16:56 UTC NOAA

KEEN 191656Z AUTO 00000KT 9SM SCT029 02/M06 A2993 RMK AO2 UPB12E37 SLP157 P0000 T00221056 FZRANO


Station Type Date Time Source
KEEN Decoded METAR 2018/01/19 16:56 UTC NOAA

Keene, Dillant-Hopkins Airport, NH, United States (KEEN) 42-54N 072-16W
Jan 19, 2018 - 11:56 AM EST / 2018.01.19 1656 UTC
Wind: Calm:0
Visibility: 9 mile(s):0
Sky conditions: partly cloudy
Precipitation last hour: A trace
Temperature: 36.0 F (2.2 C)
Dew Point: 21.9 F (-5.6 C)
Relative Humidity: 56%
Pressure (altimeter): 29.93 in. Hg (1013 hPa)
ob: KEEN 191656Z AUTO 00000KT 9SM SCT029 02/M06 A2993 RMK AO2 UPB12E37 SLP157 P0000 T00221056 FZRANO
cycle: 17

Station Type Date Time Source
KEEN TAF UTC NOAA

Error!


Example: see airport list